TimeEST,TemperatureF,Dew PointF,Humidity,Sea Level PressureIn,VisibilityMPH,Wind Direction,Wind SpeedMPH,Gust SpeedMPH,PrecipitationIn,Events,Conditions,WindDirDegrees,DateUTC
1:54 AM,41.0,37.0,86,30.40,10.0,NE,4.6,-,N/A,,Scattered Clouds,50,2012-12-01 06:54:00
2:54 AM,39.9,36.0,86,30.41,10.0,NNE,4.6,-,N/A,,Overcast,30,2012-12-01 07:54:00
4:20 AM,37.4,33.8,87,30.40,10.0,North,3.5,-,N/A,,Mostly Cloudy,350,2012-12-01 09:20:00
4:37 AM,35.6,33.8,93,30.41,10.0,North,4.6,-,N/A,,Scattered Clouds,10,2012-12-01 09:37:00
5:12 AM,35.6,33.8,93,30.41,9.0,NNE,3.5,-,N/A,,Scattered Clouds,20,2012-12-01 10:12:00
5:23 AM,35.6,33.8,93,30.42,8.0,NE,3.5,-,N/A,,Mostly Cloudy,40,2012-12-01 10:23:00
5:52 AM,37.4,35.6,93,30.42,9.0,NE,4.6,-,N/A,,Scattered Clouds,40,2012-12-01 10:52:00
6:28 AM,37.4,35.6,93,30.43,8.0,NNE,5.8,-,N/A,,Mostly Cloudy,20,2012-12-01 11:28:00
6:54 AM,39.0,37.0,93,30.44,8.0,NNE,4.6,-,N/A,,Overcast,20,2012-12-01 11:54:00
7:03 AM,39.2,37.4,93,30.44,8.0,NNE,5.8,-,N/A,,Overcast,30,2012-12-01 12:03:00
7:54 AM,42.1,39.0,89,30.45,8.0,NE,5.8,-,N/A,,Overcast,50,2012-12-01 12:54:00
8:16 AM,42.8,39.2,87,30.45,8.0,ENE,5.8,-,N/A,,Overcast,60,2012-12-01 13:16:00
8:54 AM,44.1,41.0,89,30.46,9.0,NE,4.6,-,N/A,,Overcast,50,2012-12-01 13:54:00
10:54 AM,45.0,39.9,82,30.47,9.0,NE,8.1,-,N/A,,Overcast,40,2012-12-01 15:54:00
12:54 PM,50.0,42.1,74,30.41,10.0,NE,9.2,-,N/A,,Overcast,40,2012-12-01 17:54:00
1:16 PM,50.0,42.8,76,30.41,10.0,NE,4.6,-,N/A,,Overcast,40,2012-12-01 18:16:00
1:54 PM,51.1,43.0,74,30.40,10.0,Variable,5.8,-,N/A,,Overcast,0,2012-12-01 18:54:00
2:54 PM,51.1,44.1,77,30.40,10.0,NNE,8.1,-,N/A,,Overcast,30,2012-12-01 19:54:00
4:15 PM,46.4,39.2,76,30.41,10.0,NNE,5.8,-,N/A,,Overcast,30,2012-12-01 21:15:00
4:54 PM,46.0,39.9,79,30.42,10.0,NE,6.9,-,N/A,,Overcast,40,2012-12-01 21:54:00
5:54 PM,45.0,39.0,80,30.44,10.0,NNE,8.1,-,N/A,,Overcast,30,2012-12-01 22:54:00
6:54 PM,44.1,39.0,82,30.46,7.0,NE,4.6,-,N/A,,Overcast,50,2012-12-01 23:54:00
7:38 PM,42.8,39.2,87,30.46,6.0,ENE,5.8,-,N/A,,Overcast,60,2012-12-02 00:38:00
7:54 PM,43.0,39.9,89,30.45,5.0,ENE,4.6,-,N/A,,Overcast,60,2012-12-02 00:54:00
8:22 PM,42.8,39.2,87,30.44,2.5,ENE,4.6,-,N/A,,Overcast,60,2012-12-02 01:22:00
8:49 PM,42.8,41.0,93,30.44,1.5,NE,3.5,-,N/A,,Overcast,40,2012-12-02 01:49:00
8:54 PM,42.1,41.0,96,30.44,1.2,ENE,4.6,-,N/A,,Overcast,60,2012-12-02 01:54:00
9:04 PM,42.8,41.0,93,30.43,0.8,Calm,Calm,-,N/A,,Overcast,0,2012-12-02 02:04:00
9:54 PM,42.1,41.0,96,30.43,0.2,NNE,3.5,-,N/A,Fog,Fog,20,2012-12-02 02:54:00
10:54 PM,41.0,39.9,96,30.43,0.2,North,4.6,-,N/A,Fog,Fog,10,2012-12-02 03:54:00
11:54 PM,41.0,41.0,100,30.42,0.5,Calm,Calm,-,N/A,Fog,Fog,0,2012-12-02 04:54:00